Time;durP1;ratioP1;P1;durP2;ratioP2;P2;SDS_P1;SDS_P2;PMS_P1;PMS_P2;Temp;Humidity;BMP_temperature;BMP_pressure;BME280_temperature;BME280_humidity;BME280_pressure;Samples;Min_cycle;Max_cycle;Signal;HPM_P1;HPM_P2
2022/01/21 00:01:47;;;;;;;3.50;1.83;;;-0.50;99.90;;;;;;5052124;28;20191;-56
2022/01/21 00:04:13;;;;;;;3.47;1.60;;;-0.40;99.90;;;;;;5052704;28;20229;-57
2022/01/21 00:06:39;;;;;;;3.10;1.20;;;;;;;;;;5052066;28;20254;-55
2022/01/21 00:09:05;;;;;;;10.67;1.77;;;-0.30;99.90;;;;;;5052560;28;20175;-57
2022/01/21 00:11:31;;;;;;;4.57;1.33;;;-0.10;99.90;;;;;;5052043;28;20449;-55
2022/01/21 00:13:58;;;;;;;1.93;1.07;;;-0.30;99.90;;;;;;5052086;28;20421;-52
2022/01/21 00:16:25;;;;;;;2.77;1.40;;;-0.50;99.90;;;;;;5051293;28;20179;-56
2022/01/21 00:19:00;;;;;;;2.30;1.43;;;-0.50;99.90;;;;;;5052115;28;20410;-51
2022/01/21 00:32:25;;;;;;;2.13;1.40;;;;;;;;;;5052317;28;20786;-55
2022/01/21 00:34:51;;;;;;;3.33;1.40;;;-0.60;99.90;;;;;;5051624;28;20409;-51
2022/01/21 00:37:16;;;;;;;2.57;1.80;;;-0.60;99.90;;;;;;5050728;28;21028;-55
2022/01/21 00:39:45;;;;;;;3.80;2.00;;;;;;;;;;5051873;28;20497;-55
2022/01/21 00:42:32;;;;;;;2.47;1.60;;;-0.90;99.90;;;;;;5051919;28;20249;-58
2022/01/21 00:44:59;;;;;;;2.40;1.57;;;;;;;;;;5051338;28;20414;-58
2022/01/21 00:47:25;;;;;;;5.50;1.70;;;-0.90;99.90;;;;;;5051958;28;20973;-57
2022/01/21 00:49:50;;;;;;;4.23;1.40;;;-0.50;99.90;;;;;;5051656;28;20564;-57
2022/01/21 00:52:16;;;;;;;3.27;1.70;;;-0.60;99.90;;;;;;5052012;28;20254;-58
2022/01/21 00:54:41;;;;;;;6.87;1.90;;;-0.60;99.90;;;;;;5051521;28;20174;-54
2022/01/21 00:57:07;;;;;;;6.80;1.70;;;-0.60;99.90;;;;;;5051737;28;20199;-55
2022/01/21 00:59:33;;;;;;;7.47;1.83;;;-0.60;99.90;;;;;;5050684;28;20639;-53
2022/01/21 01:01:59;;;;;;;6.13;1.80;;;-0.60;99.90;;;;;;5051570;28;20195;-58
2022/01/21 01:04:24;;;;;;;4.17;2.00;;;-0.60;99.90;;;;;;5051808;28;20175;-55
2022/01/21 01:06:50;;;;;;;4.37;1.77;;;-0.70;99.90;;;;;;5051346;28;20190;-58
2022/01/21 01:09:16;;;;;;;3.93;1.63;;;-0.80;99.90;;;;;;5050451;28;20258;-58
2022/01/21 01:12:34;;;;;;;4.90;1.93;;;-0.70;99.90;;;;;;5051292;28;20334;-54
2022/01/21 01:20:03;;;;;;;2.20;1.10;;;-1.00;99.90;;;;;;5051704;28;20936;-52
2022/01/21 01:22:48;;;;;;;4.07;1.37;;;-0.80;99.90;;;;;;5051459;28;20420;-57
2022/01/21 01:27:59;;;;;;;6.67;1.57;;;;;;;;;;5051377;28;20479;-56
2022/01/21 01:30:27;;;;;;;7.23;1.83;;;-0.80;99.90;;;;;;5055539;28;20420;-54
2022/01/21 01:32:56;;;;;;;3.53;1.30;;;-0.70;99.90;;;;;;5055198;28;20405;-56
2022/01/21 01:35:23;;;;;;;4.27;1.70;;;-0.70;99.90;;;;;;5055310;28;20469;-53
2022/01/21 01:41:22;;;;;;;3.53;1.20;;;-0.70;99.90;;;;;;5014189;28;20441;-59
2022/01/21 01:51:26;;;;;;;4.40;1.30;;;-0.70;99.90;;;;;;5055222;28;20436;-53
2022/01/21 01:53:59;;;;;;;6.17;1.50;;;-0.80;99.90;;;;;;5055196;28;20401;-53
2022/01/21 01:56:39;;;;;;;1.33;1.07;;;-0.60;99.90;;;;;;5054442;28;20532;-54
2022/01/21 01:59:04;;;;;;;3.63;1.17;;;-0.60;99.90;;;;;;5055134;28;20420;-51
2022/01/21 02:01:30;;;;;;;4.47;1.40;;;-0.60;99.90;;;;;;5054648;28;20414;-52
2022/01/21 02:03:56;;;;;;;2.90;1.23;;;-0.70;99.90;;;;;;5054871;28;20163;-51
2022/01/21 02:06:22;;;;;;;2.83;1.00;;;-0.80;99.90;;;;;;5054111;28;20306;-52
2022/01/21 02:08:47;;;;;;;4.27;1.53;;;-0.60;99.90;;;;;;5054727;28;20169;-51
2022/01/21 02:11:13;;;;;;;3.97;1.43;;;-0.60;99.90;;;;;;5054285;28;20445;-54
2022/01/21 02:13:44;;;;;;;4.17;1.70;;;-0.60;99.90;;;;;;5054818;28;20220;-57
2022/01/21 02:16:30;;;;;;;4.40;1.23;;;-0.60;99.90;;;;;;5054276;28;20167;-56
2022/01/21 02:21:45;;;;;;;2.93;1.10;;;-0.50;99.90;;;;;;5054609;28;20422;-56
2022/01/21 02:24:19;;;;;;;2.43;0.90;;;-0.50;99.90;;;;;;5054579;28;20410;-60
2022/01/21 02:26:46;;;;;;;2.77;1.17;;;-0.40;99.90;;;;;;5054112;28;20398;-57
2022/01/21 02:29:15;;;;;;;1.77;0.97;;;-0.40;99.90;;;;;;5054362;28;20434;-57
2022/01/21 02:31:41;;;;;;;2.43;0.97;;;-0.50;99.90;;;;;;5054433;28;20509;-57
2022/01/21 02:34:08;;;;;;;2.40;1.00;;;-0.50;99.90;;;;;;5054209;28;20409;-56
2022/01/21 02:36:34;;;;;;;3.50;1.20;;;-0.40;99.90;;;;;;5053911;28;20175;-57
2022/01/21 02:38:59;;;;;;;1.83;1.00;;;-0.40;99.90;;;;;;5053589;28;20414;-59
2022/01/21 02:41:26;;;;;;;4.33;1.20;;;;;;;;;;5054118;28;20560;-57
2022/01/21 02:43:52;;;;;;;2.57;1.37;;;-0.20;99.90;;;;;;5053988;28;20206;-53
2022/01/21 02:46:21;;;;;;;1.40;0.90;;;-0.30;99.90;;;;;;5053821;28;20452;-57
2022/01/21 02:48:48;;;;;;;4.33;1.20;;;-0.30;99.90;;;;;;5053874;28;20421;-59
2022/01/21 02:51:14;;;;;;;2.70;1.17;;;-0.30;99.90;;;;;;5053987;28;20456;-58
2022/01/21 02:56:16;;;;;;;2.73;1.27;;;-0.30;99.90;;;;;;5053515;28;20458;-56
2022/01/21 02:58:42;;;;;;;2.57;1.17;;;-0.30;99.90;;;;;;5054014;28;20457;-56
2022/01/21 03:01:08;;;;;;;5.47;1.67;;;-0.30;99.90;;;;;;5052368;28;20472;-52
2022/01/21 03:03:34;;;;;;;4.00;1.30;;;-0.40;99.90;;;;;;5053889;28;20440;-54
2022/01/21 03:06:01;;;;;;;4.83;1.30;;;-0.30;99.90;;;;;;5053204;28;20171;-53
2022/01/21 03:08:27;;;;;;;5.03;1.47;;;-0.30;99.90;;;;;;5053816;28;20410;-51
2022/01/21 03:10:53;;;;;;;1.27;1.00;;;-0.20;99.90;;;;;;5053196;28;20810;-53
2022/01/21 03:13:22;;;;;;;2.10;1.20;;;-0.30;99.90;;;;;;5053735;28;20479;-51
2022/01/21 03:15:49;;;;;;;4.57;1.60;;;-0.40;99.90;;;;;;5053112;28;20623;-57
2022/01/21 03:18:15;;;;;;;3.30;1.30;;;-0.50;99.90;;;;;;5053427;28;20566;-54
2022/01/21 03:20:40;;;;;;;3.73;1.40;;;-0.50;99.90;;;;;;5053492;28;20943;-57
2022/01/21 03:23:06;;;;;;;2.60;1.47;;;-0.50;99.90;;;;;;5053489;28;20487;-58
2022/01/21 03:25:31;;;;;;;4.50;1.43;;;1.10;99.90;;;;;;5053134;28;20183;-55
2022/01/21 03:27:57;;;;;;;3.07;1.10;;;-0.80;99.90;;;;;;5053136;28;20254;-53
2022/01/21 03:30:22;;;;;;;4.30;1.33;;;-0.80;99.90;;;;;;5053301;28;20205;-55
2022/01/21 03:32:48;;;;;;;2.83;1.27;;;-0.80;99.90;;;;;;5053070;28;20257;-54
2022/01/21 03:35:14;;;;;;;5.53;1.43;;;-0.80;99.90;;;;;;5052952;28;20179;-57
2022/01/21 03:37:39;;;;;;;3.67;1.17;;;-0.80;99.90;;;;;;5052876;28;20293;-51
2022/01/21 03:40:06;;;;;;;4.37;1.37;;;-0.70;99.90;;;;;;5053054;28;20175;-51
2022/01/21 03:42:32;;;;;;;5.40;1.40;;;-0.60;99.90;;;;;;5052934;28;20217;-56
2022/01/21 03:44:58;;;;;;;3.80;1.40;;;-0.70;99.90;;;;;;5052643;28;20418;-52
2022/01/21 03:47:23;;;;;;;4.43;1.47;;;-0.60;99.90;;;;;;5051696;28;20189;-51
2022/01/21 03:49:56;;;;;;;4.33;1.57;;;-0.50;99.90;;;;;;5052663;28;20571;-56
2022/01/21 03:52:21;;;;;;;2.87;1.10;;;-0.40;99.90;;;;;;5052162;28;20171;-57
2022/01/21 03:54:47;;;;;;;3.63;1.20;;;-0.40;99.90;;;;;;5052370;28;20552;-52
2022/01/21 03:57:13;;;;;;;4.23;1.40;;;-0.40;99.90;;;;;;5052716;28;20231;-54
2022/01/21 03:59:38;;;;;;;4.00;1.23;;;-0.40;99.90;;;;;;5052586;28;20178;-53
2022/01/21 04:02:06;;;;;;;2.00;1.40;;;-0.50;99.90;;;;;;5052617;28;20198;-56
2022/01/21 04:04:32;;;;;;;3.47;1.50;;;-0.60;99.90;;;;;;5052226;28;20188;-56
2022/01/21 04:06:57;;;;;;;4.17;1.50;;;-0.70;99.90;;;;;;5052627;28;20409;-57
2022/01/21 04:09:23;;;;;;;3.87;1.50;;;-0.70;99.90;;;;;;5052554;28;20190;-52
2022/01/21 04:11:49;;;;;;;2.63;1.60;;;-0.80;99.90;;;;;;5088240;22;20286;-59
2022/01/21 04:14:15;;;;;;;3.60;1.33;;;-0.90;99.90;;;;;;5056265;28;20251;-61
2022/01/21 04:16:40;;;;;;;4.87;1.13;;;-1.30;99.90;;;;;;5055111;28;20460;-61
2022/01/21 04:19:06;;;;;;;3.60;1.50;;;-1.00;99.90;;;;;;5055779;28;20635;-60
2022/01/21 04:21:31;;;;;;;6.87;3.27;;;-1.00;99.90;;;;;;5055968;28;20187;-59
2022/01/21 04:23:59;;;;;;;4.23;1.47;;;-1.00;99.90;;;;;;5055277;28;20175;-59
2022/01/21 04:26:25;;;;;;;3.03;1.30;;;-1.00;99.90;;;;;;5054573;28;20179;-59
2022/01/21 04:28:50;;;;;;;5.03;1.80;;;-1.00;99.90;;;;;;5058506;28;20475;-59
2022/01/21 04:31:16;;;;;;;3.83;1.67;;;-1.10;99.90;;;;;;5060903;28;20194;-61
2022/01/21 04:33:41;;;;;;;3.40;1.60;;;-1.20;99.90;;;;;;5060986;28;20259;-61
2022/01/21 04:36:07;;;;;;;2.97;1.37;;;-1.20;99.90;;;;;;5059099;28;20184;-61
2022/01/21 04:38:33;;;;;;;4.40;1.20;;;-1.20;99.90;;;;;;5056308;28;20198;-56
2022/01/21 04:49:07;;;;;;;2.30;1.37;;;-1.10;99.90;;;;;;5056282;28;20460;-60
2022/01/21 04:51:40;;;;;;;5.20;1.43;;;-1.10;99.90;;;;;;5055710;28;20926;-59
2022/01/21 04:54:06;;;;;;;1.60;1.20;;;-1.10;99.90;;;;;;5053821;28;20209;-58
2022/01/21 04:56:31;;;;;;;3.47;1.10;;;-1.20;99.90;;;;;;5054823;28;20417;-58
2022/01/21 04:58:57;;;;;;;3.90;1.20;;;-1.30;99.90;;;;;;5055470;28;20171;-60
2022/01/21 05:01:23;;;;;;;4.93;1.30;;;-1.40;99.90;;;;;;5055598;28;20191;-56
2022/01/21 05:03:49;;;;;;;5.13;1.50;;;-1.40;99.90;;;;;;5054675;28;20186;-61
2022/01/21 05:06:15;;;;;;;5.70;1.30;;;-1.30;99.90;;;;;;5054025;28;20178;-59
2022/01/21 05:08:46;;;;;;;2.33;1.20;;;-1.20;99.90;;;;;;5054595;28;20786;-60
2022/01/21 05:11:14;;;;;;;3.90;1.20;;;-1.10;99.90;;;;;;5054790;28;20732;-58
2022/01/21 05:13:50;;;;;;;5.77;1.30;;;-1.00;99.90;;;;;;5054504;28;20436;-60
2022/01/21 05:16:35;;;;;;;2.60;1.53;;;-1.00;99.90;;;;;;5054370;28;20478;-62
2022/01/21 05:19:13;;;;;;;2.40;1.20;;;-1.00;99.90;;;;;;5054758;28;20890;-60
2022/01/21 05:21:39;;;;;;;3.30;1.50;;;-0.90;99.90;;;;;;5054317;28;20460;-60
2022/01/21 05:24:06;;;;;;;3.60;1.47;;;-1.00;99.90;;;;;;5054980;28;20425;-61
2022/01/21 05:26:36;;;;;;;3.17;1.23;;;-1.10;99.90;;;;;;5055031;28;20707;-58
2022/01/21 05:29:07;;;;;;;3.70;1.20;;;-1.20;99.90;;;;;;5054269;28;20979;-59
2022/01/21 05:31:33;;;;;;;7.87;1.77;;;-1.30;99.90;;;;;;5054622;28;20457;-60
2022/01/21 05:33:59;;;;;;;4.07;1.27;;;-1.40;99.90;;;;;;5053820;28;20504;-61
2022/01/21 05:36:26;;;;;;;5.07;1.73;;;-1.40;99.90;;;;;;5054616;28;20441;-59
2022/01/21 05:38:55;;;;;;;2.87;1.23;;;-1.40;99.90;;;;;;5055475;28;20194;-58
2022/01/21 05:41:24;;;;;;;2.77;1.37;;;-1.40;99.90;;;;;;5054929;28;20475;-59
2022/01/21 05:43:58;;;;;;;4.53;1.43;;;-1.50;99.90;;;;;;5055132;28;20432;-61
2022/01/21 05:46:57;;;;;;;3.73;1.37;;;;;;;;;;5053996;28;20448;-59
2022/01/21 05:49:16;;;;;;;3.63;1.50;;;-1.30;99.90;;;;;;5053424;28;20424;-61
2022/01/21 05:51:43;;;;;;;2.83;1.30;;;-1.20;99.90;;;;;;5053922;28;20437;-60
2022/01/21 05:54:09;;;;;;;4.63;1.63;;;-1.10;99.90;;;;;;5054065;28;20179;-59
2022/01/21 05:56:37;;;;;;;3.73;1.30;;;-1.10;99.90;;;;;;5053960;28;20409;-59
2022/01/21 05:59:06;;;;;;;4.03;1.30;;;-1.20;99.90;;;;;;5054385;28;20424;-61
2022/01/21 06:01:33;;;;;;;3.83;1.53;;;-1.20;99.90;;;;;;5054434;28;20842;-60
2022/01/21 06:04:00;;;;;;;3.03;1.40;;;-1.30;99.90;;;;;;5054147;28;20401;-59
2022/01/21 06:06:26;;;;;;;2.70;1.30;;;-1.40;99.90;;;;;;5053976;28;20485;-60
2022/01/21 06:08:52;;;;;;;4.17;1.57;;;-1.40;99.90;;;;;;5054195;28;20445;-59
2022/01/21 06:11:17;;;;;;;6.00;1.70;;;-1.60;99.90;;;;;;5055280;28;20203;-61
2022/01/21 06:13:45;;;;;;;4.07;1.87;;;-1.90;99.90;;;;;;5056131;28;20795;-61
2022/01/21 06:16:11;;;;;;;5.47;2.10;;;-2.20;99.90;;;;;;5058051;28;20651;-57
2022/01/21 06:18:37;;;;;;;4.47;1.63;;;-2.30;99.90;;;;;;5061168;28;20449;-56
2022/01/21 06:21:02;;;;;;;2.43;1.07;;;-2.50;99.90;;;;;;5060796;28;20187;-59
2022/01/21 06:23:28;;;;;;;8.47;1.83;;;-2.60;99.90;;;;;;5061967;28;20168;-59
2022/01/21 06:25:53;;;;;;;5.10;1.57;;;-2.60;99.90;;;;;;5059377;28;20524;-58
2022/01/21 06:28:19;;;;;;;3.67;1.83;;;-2.60;99.90;;;;;;5060203;28;20183;-59
2022/01/21 06:30:44;;;;;;;5.33;1.60;;;-2.70;99.90;;;;;;5059981;28;20206;-58
2022/01/21 06:33:10;;;;;;;6.13;2.30;;;-2.50;99.90;;;;;;5059953;28;20179;-59
2022/01/21 06:35:36;;;;;;;2.97;1.43;;;-2.40;99.90;;;;;;5059731;28;20167;-59
2022/01/21 06:38:02;;;;;;;4.90;1.60;;;-0.50;99.90;;;;;;5059799;28;20268;-59
2022/01/21 06:40:27;;;;;;;5.97;1.77;;;-2.50;99.90;;;;;;5059202;28;20178;-60
2022/01/21 06:43:00;;;;;;;4.03;1.40;;;-2.50;99.90;;;;;;5059068;28;20228;-59
2022/01/21 06:45:26;;;;;;;7.53;1.70;;;-2.50;99.90;;;;;;5056674;28;20171;-58
2022/01/21 06:47:51;;;;;;;5.97;1.50;;;-2.60;99.90;;;;;;5059363;28;20408;-59
2022/01/21 06:50:17;;;;;;;3.57;1.87;;;-2.50;99.90;;;;;;5054190;28;20180;-57
2022/01/21 06:52:42;;;;;;;6.33;2.00;;;-2.50;99.90;;;;;;5050101;28;20211;-58
2022/01/21 06:55:08;;;;;;;5.67;1.80;;;-2.40;99.90;;;;;;5059045;28;20178;-57
2022/01/21 06:57:38;;;;;;;5.40;1.97;;;-2.30;99.90;;;;;;5057834;28;20206;-57
2022/01/21 07:00:09;;;;;;;7.20;2.03;;;-2.40;99.90;;;;;;5058653;28;20306;-57
2022/01/21 07:02:35;;;;;;;6.73;1.90;;;-2.50;99.90;;;;;;5059108;28;20551;-61
2022/01/21 07:05:02;;;;;;;6.20;1.47;;;-2.70;99.90;;;;;;5053518;28;20414;-59
2022/01/21 07:07:28;;;;;;;5.07;1.60;;;-2.70;99.90;;;;;;5047919;28;20830;-59
2022/01/21 07:09:55;;;;;;;5.30;1.70;;;-2.60;99.90;;;;;;5038920;28;20419;-59
2022/01/21 07:12:21;;;;;;;3.53;1.47;;;-2.70;99.90;;;;;;5039520;28;20227;-59
2022/01/21 07:14:46;;;;;;;4.87;1.60;;;-2.60;99.90;;;;;;5038282;28;20430;-60
2022/01/21 07:17:12;;;;;;;3.27;1.57;;;-2.50;99.90;;;;;;5038625;28;20214;-61
2022/01/21 07:19:37;;;;;;;7.30;1.97;;;-0.80;99.90;;;;;;5039413;28;20529;-60
2022/01/21 07:22:03;;;;;;;4.07;1.80;;;-2.40;99.90;;;;;;5043453;28;20184;-60
2022/01/21 07:24:29;;;;;;;4.20;2.00;;;-2.50;99.90;;;;;;5042259;28;20198;-58
2022/01/21 07:26:55;;;;;;;5.37;1.83;;;-2.70;99.90;;;;;;5043028;28;20176;-60
2022/01/21 07:29:20;;;;;;;3.67;1.70;;;-2.80;99.90;;;;;;5042934;28;20310;-58
2022/01/21 07:31:46;;;;;;;5.10;1.80;;;-2.80;99.90;;;;;;5038635;28;20191;-56
2022/01/21 07:34:12;;;;;;;4.00;1.73;;;-2.90;99.90;;;;;;5039155;28;20176;-57
2022/01/21 07:36:37;;;;;;;4.63;2.00;;;-2.90;99.90;;;;;;5038413;28;20540;-56
2022/01/21 07:39:04;;;;;;;5.73;1.70;;;-2.90;99.90;;;;;;5039572;28;20198;-57
2022/01/21 07:41:30;;;;;;;4.13;1.67;;;-2.90;99.90;;;;;;5036976;28;20200;-55
2022/01/21 07:43:55;;;;;;;6.80;2.03;;;-2.90;99.90;;;;;;5039091;28;20864;-58
2022/01/21 07:46:22;;;;;;;4.37;2.00;;;-2.70;99.90;;;;;;5037937;28;20180;-57
2022/01/21 07:48:47;;;;;;;2.63;1.60;;;-1.80;99.90;;;;;;5034973;28;20191;-58
2022/01/21 07:51:13;;;;;;;3.70;1.90;;;-0.10;99.90;;;;;;5035550;28;20438;-56
2022/01/21 07:53:39;;;;;;;5.37;1.60;;;1.10;99.90;;;;;;5034914;28;20180;-62
2022/01/21 07:56:04;;;;;;;4.33;1.63;;;2.30;99.90;;;;;;5034404;28;20215;-61
2022/01/21 07:58:31;;;;;;;4.27;1.73;;;3.20;99.90;;;;;;5034286;28;20203;-62
2022/01/21 08:00:57;;;;;;;2.63;1.40;;;4.70;99.90;;;;;;5034523;28;20203;-62
2022/01/21 08:03:24;;;;;;;4.10;1.60;;;4.80;99.90;;;;;;5034506;28;20198;-61
2022/01/21 08:05:50;;;;;;;3.30;1.73;;;5.40;99.90;;;;;;5034211;28;20221;-61
2022/01/21 08:08:15;;;;;;;3.33;1.80;;;5.90;99.90;;;;;;5034206;28;20207;-60
2022/01/21 08:10:41;;;;;;;3.50;1.80;;;5.80;99.90;;;;;;5034027;28;20219;-59
2022/01/21 08:13:06;;;;;;;4.40;1.70;;;6.10;99.90;;;;;;5033752;28;20237;-59
2022/01/21 08:15:32;;;;;;;4.57;1.90;;;6.50;99.90;;;;;;5033324;28;20263;-59
2022/01/21 08:17:58;;;;;;;2.97;1.80;;;7.70;99.20;;;;;;5033867;28;20187;-60
2022/01/21 08:20:23;;;;;;;4.70;1.90;;;7.50;98.60;;;;;;5033732;28;20164;-60
2022/01/21 08:22:49;;;;;;;3.17;1.47;;;7.50;98.80;;;;;;5034521;28;20179;-60
2022/01/21 08:25:15;;;;;;;4.13;1.80;;;7.30;98.70;;;;;;5034883;28;20309;-62
2022/01/21 08:27:40;;;;;;;3.20;1.50;;;7.30;98.30;;;;;;5034652;28;20176;-60
2022/01/21 08:30:07;;;;;;;2.93;1.53;;;6.80;98.80;;;;;;5034323;28;20175;-59
2022/01/21 08:32:34;;;;;;;3.13;1.60;;;6.90;99.20;;;;;;5034592;28;20676;-59
2022/01/21 08:35:00;;;;;;;3.67;1.53;;;7.40;98.30;;;;;;5033542;28;20179;-58
2022/01/21 08:37:26;;;;;;;4.67;1.70;;;7.70;97.60;;;;;;5034268;28;20206;-59
2022/01/21 08:39:51;;;;;;;3.23;1.63;;;7.80;97.40;;;;;;5035232;28;20175;-59
2022/01/21 08:42:17;;;;;;;4.10;1.90;;;8.30;96.80;;;;;;5035411;28;20198;-58
2022/01/21 08:44:43;;;;;;;4.30;1.90;;;8.60;96.20;;;;;;5035891;28;20203;-61
2022/01/21 08:47:09;;;;;;;4.27;1.60;;;9.10;95.60;;;;;;5035086;28;20171;-60
2022/01/21 08:49:35;;;;;;;5.27;1.70;;;9.40;94.70;;;;;;5035924;28;20172;-60
2022/01/21 08:52:01;;;;;;;3.70;1.60;;;9.80;94.20;;;;;;5035085;28;20188;-61
2022/01/21 08:54:28;;;;;;;2.97;1.60;;;10.40;92.80;;;;;;5035093;28;20259;-58
2022/01/21 08:56:55;;;;;;;5.77;2.10;;;11.30;92.50;;;;;;5032228;28;20213;-60
2022/01/21 08:59:22;;;;;;;3.10;1.57;;;12.10;88.80;;;;;;5035514;28;20176;-60
2022/01/21 09:01:49;;;;;;;5.43;1.70;;;9.80;89.40;;;;;;5036145;28;20192;-60
2022/01/21 09:04:18;;;;;;;4.80;1.83;;;10.20;90.90;;;;;;5036083;28;20691;-59
2022/01/21 09:06:46;;;;;;;3.60;1.67;;;9.80;91.40;;;;;;5036062;28;20195;-61
2022/01/21 09:09:12;;;;;;;4.13;2.07;;;8.40;92.90;;;;;;5036228;28;20168;-60
2022/01/21 09:11:38;;;;;;;4.57;1.77;;;7.00;94.60;;;;;;5036325;28;20241;-62
2022/01/21 09:14:03;;;;;;;5.87;1.80;;;5.90;96.50;;;;;;5035913;28;20252;-58
2022/01/21 09:16:29;;;;;;;3.23;1.40;;;5.90;98.60;;;;;;5034782;28;20195;-61
2022/01/21 09:18:57;;;;;;;3.03;1.50;;;7.10;97.20;;;;;;5034422;28;20242;-62
2022/01/21 09:21:27;;;;;;;4.00;1.80;;;7.70;96.90;;;;;;5033966;28;20188;-60
2022/01/21 09:23:54;;;;;;;3.03;1.60;;;8.90;94.70;;;;;;5034732;28;20183;-59
2022/01/21 09:26:22;;;;;;;4.53;1.97;;;7.90;99.90;;;;;;5035041;28;20636;-60
2022/01/21 09:28:48;;;;;;;4.93;1.90;;;7.90;95.20;;;;;;5034826;28;20187;-60
2022/01/21 09:31:15;;;;;;;5.50;1.93;;;7.90;95.10;;;;;;5036153;28;20195;-62
2022/01/21 09:33:40;;;;;;;4.37;1.83;;;7.30;96.00;;;;;;5036599;28;20183;-60
2022/01/21 09:36:07;;;;;;;6.67;2.27;;;6.00;96.70;;;;;;5035195;28;20254;-62
2022/01/21 09:38:33;;;;;;;5.07;1.97;;;4.70;98.40;;;;;;5037811;28;20676;-58
2022/01/21 09:41:00;;;;;;;3.93;2.10;;;4.00;99.90;;;;;;5037110;28;20287;-61
2022/01/21 09:43:27;;;;;;;4.40;1.83;;;3.70;99.90;;;;;;5035520;28;20265;-59
2022/01/21 09:45:55;;;;;;;6.20;2.00;;;3.20;99.90;;;;;;5034568;28;20275;-58
2022/01/21 09:48:28;;;;;;;4.40;1.77;;;2.70;99.90;;;;;;5036125;28;20266;-60
2022/01/21 09:50:58;;;;;;;3.83;1.90;;;4.00;99.90;;;;;;5038358;28;20199;-60
2022/01/21 09:53:35;;;;;;;4.63;1.80;;;5.90;99.90;;;;;;5039286;28;20171;-59
2022/01/21 09:56:04;;;;;;;5.47;1.97;;;7.50;98.50;;;;;;5039067;28;20172;-59
2022/01/21 09:58:30;;;;;;;5.87;2.40;;;8.00;95.90;;;;;;5039937;28;20188;-61
2022/01/21 10:00:57;;;;;;;3.57;1.90;;;7.30;96.00;;;;;;5039552;28;20675;-60
2022/01/21 10:03:23;;;;;;;6.43;2.20;;;6.60;96.50;;;;;;5039846;28;20247;-59
2022/01/21 10:05:52;;;;;;;4.67;1.90;;;5.10;98.50;;;;;;5039321;28;20198;-60
2022/01/21 10:08:21;;;;;;;4.50;2.20;;;4.10;99.90;;;;;;5038878;28;20552;-59
2022/01/21 10:10:53;;;;;;;6.37;2.07;;;3.80;99.90;;;;;;5052760;22;20204;-88
2022/01/21 10:13:19;;;;;;;5.10;2.00;;;3.20;99.90;;;;;;5035749;28;20198;-92
2022/01/21 10:15:46;;;;;;;3.97;2.13;;;4.40;99.90;;;;;;5037084;28;20573;-88
2022/01/21 10:18:20;;;;;;;5.73;2.20;;;4.10;99.90;;;;;;5037600;28;20206;-88
2022/01/21 10:21:04;;;;;;;3.90;1.77;;;5.00;99.90;;;;;;5037783;28;20171;-87
2022/01/21 10:23:34;;;;;;;4.87;2.10;;;4.50;99.90;;;;;;5055239;28;20220;-87
2022/01/21 10:26:11;;;;;;;4.73;2.17;;;4.50;99.90;;;;;;5037259;28;20168;-89
2022/01/21 10:28:39;;;;;;;5.03;2.00;;;4.30;99.90;;;;;;5055960;28;20237;-88
2022/01/21 10:31:12;;;;;;;5.50;2.20;;;6.30;99.90;;;;;;5038567;28;20170;-88
2022/01/21 10:33:47;;;;;;;6.60;2.20;;;3.60;99.90;;;;;;5038232;28;20262;-88
2022/01/21 10:36:21;;;;;;;4.80;1.90;;;2.90;99.90;;;;;;5037642;28;20198;-87
2022/01/21 10:38:49;;;;;;;2.87;1.70;;;3.00;99.90;;;;;;5037282;28;20726;-88
2022/01/21 10:41:17;;;;;;;5.10;2.37;;;3.40;99.90;;;;;;5036697;28;20178;-88
2022/01/21 10:44:01;;;;;;;4.17;2.07;;;3.70;99.90;;;;;;5036192;28;20267;-88
2022/01/21 10:46:27;;;;;;;4.67;2.17;;;3.60;99.90;;;;;;5035429;28;20705;-88
2022/01/21 10:49:07;;;;;;;4.77;1.93;;;3.30;99.90;;;;;;5037195;28;20243;-91
2022/01/21 10:51:35;;;;;;;7.20;2.57;;;3.30;99.90;;;;;;5036045;28;20519;-89
2022/01/21 10:54:23;;;;;;;5.50;2.20;;;4.20;99.90;;;;;;5037343;28;20526;-87
2022/01/21 10:57:07;;;;;;;5.83;2.47;;;3.50;99.90;;;;;;5054724;28;20627;-86
2022/01/21 10:59:51;;;;;;;7.83;2.43;;;3.70;99.90;;;;;;5037179;28;20175;-86
2022/01/21 11:02:28;;;;;;;5.70;2.47;;;2.60;99.90;;;;;;5036378;28;20182;-87
2022/01/21 11:04:54;;;;;;;5.57;2.03;;;2.30;99.90;;;;;;5036831;28;20258;-87
2022/01/21 11:07:52;;;;;;;7.00;2.20;;;2.20;99.90;;;;;;5037180;28;20650;-87
2022/01/21 11:10:50;;;;;;;7.47;2.57;;;2.00;99.90;;;;;;4938711;29;20190;-87
2022/01/21 11:13:18;;;;;;;5.60;2.20;;;2.10;99.90;;;;;;4862785;29;20236;-90
2022/01/21 11:15:48;;;;;;;6.47;2.70;;;2.30;99.90;;;;;;4878367;29;20185;-87
2022/01/21 11:18:17;;;;;;;6.53;2.57;;;2.20;99.90;;;;;;4862999;29;20701;-89
2022/01/21 11:20:47;;;;;;;5.93;2.17;;;2.00;99.90;;;;;;4863225;29;20653;-90
2022/01/21 11:23:13;;;;;;;8.47;2.23;;;1.60;99.90;;;;;;4862972;29;20196;-89
2022/01/21 11:25:50;;;;;;;6.63;3.00;;;1.70;99.90;;;;;;4862864;29;20177;-89
2022/01/21 11:28:17;;;;;;;18.00;8.27;;;1.80;99.90;;;;;;4877851;29;20241;-91
2022/01/21 11:30:43;;;;;;;7.90;2.57;;;2.90;99.90;;;;;;4862735;29;20217;-89
2022/01/21 11:33:09;;;;;;;9.63;4.40;;;2.80;99.90;;;;;;4862582;29;20173;-88
2022/01/21 11:35:35;;;;;;;11.47;6.53;;;;;;;;;;4861851;29;20181;-88
2022/01/21 11:38:05;;;;;;;5.97;3.07;;;4.20;99.90;;;;;;4878226;29;20332;-88
2022/01/21 11:40:31;;;;;;;6.50;2.47;;;4.40;99.90;;;;;;4862269;29;20251;-88
2022/01/21 11:42:57;;;;;;;29.47;19.37;;;4.10;99.90;;;;;;4862641;29;20581;-88
2022/01/21 11:48:49;;;;;;;14.03;8.97;;;5.30;99.90;;;;;;4937807;29;20190;-88
2022/01/21 11:50:50;;;;;;;6.03;2.43;;;7.00;99.90;;;;;;5052382;28;20614;-88
2022/01/21 11:53:45;;;;;;;3.70;1.80;;;8.90;97.10;;;;;;5036424;28;20168;-88
2022/01/21 11:56:35;;;;;;;4.60;2.37;;;8.70;95.90;;;;;;5035603;28;20171;-89
2022/01/21 11:59:10;;;;;;;6.23;2.30;;;8.80;95.60;;;;;;5035636;28;20207;-88
2022/01/21 12:01:47;;;;;;;5.10;2.10;;;11.10;95.20;;;;;;5035861;28;20240;-89
2022/01/21 12:04:13;;;;;;;4.60;1.90;;;10.50;93.70;;;;;;5035784;28;20174;-88
2022/01/21 12:06:39;;;;;;;8.13;2.23;;;;;;;;;;5035416;28;20252;-88
2022/01/21 12:09:08;;;;;;;4.13;1.70;;;8.20;92.60;;;;;;5036136;28;20619;-88
2022/01/21 12:11:35;;;;;;;6.30;2.07;;;7.60;99.80;;;;;;5035534;28;20191;-88
2022/01/21 12:14:21;;;;;;;8.87;5.00;;;7.90;94.40;;;;;;5035981;28;20519;-92
2022/01/21 12:17:12;;;;;;;9.10;3.90;;;8.20;95.20;;;;;;5036175;28;20171;-90
2022/01/21 12:19:40;;;;;;;16.57;11.43;;;8.70;93.40;;;;;;5036192;28;20171;-89
2022/01/21 12:22:18;;;;;;;34.40;23.93;;;9.20;93.10;;;;;;5036177;28;20181;-88
2022/01/21 12:24:51;;;;;;;14.23;8.80;;;10.60;95.50;;;;;;5039044;28;20231;-88
2022/01/21 12:27:21;;;;;;;8.13;5.37;;;11.00;90.90;;;;;;5035298;28;20274;-88
2022/01/21 12:29:47;;;;;;;3.97;1.90;;;;;;;;;;5037305;28;20172;-88
2022/01/21 12:34:57;;;;;;;6.00;2.33;;;12.30;86.70;;;;;;5052153;28;20175;-87
2022/01/21 12:37:26;;;;;;;5.93;2.00;;;12.90;82.50;;;;;;5035139;28;20222;-87
2022/01/21 12:39:52;;;;;;;5.67;2.10;;;12.10;82.10;;;;;;5035189;28;20175;-90
2022/01/21 12:42:21;;;;;;;5.23;2.00;;;12.80;85.30;;;;;;5035537;28;20182;-87
2022/01/21 12:44:51;;;;;;;5.13;1.80;;;11.40;86.00;;;;;;5034796;28;20175;-87
2022/01/21 12:47:32;;;;;;;4.20;1.93;;;8.90;90.30;;;;;;5035489;28;20185;-88
2022/01/21 12:50:05;;;;;;;3.20;1.90;;;8.50;90.70;;;;;;5035017;28;20167;-88
2022/01/21 12:52:52;;;;;;;5.87;2.40;;;8.20;88.60;;;;;;5035182;28;20273;-86
2022/01/21 12:58:16;;;;;;;5.47;2.30;;;7.50;90.70;;;;;;5052716;28;20232;-87
2022/01/21 13:00:43;;;;;;;4.77;2.43;;;;;;;;;;5034949;28;20167;-88
2022/01/21 13:03:34;;;;;;;6.43;2.23;;;5.10;96.50;;;;;;5035626;28;20551;-90
2022/01/21 13:06:02;;;;;;;5.13;2.33;;;5.20;94.60;;;;;;5034863;28;20619;-90
2022/01/21 13:08:37;;;;;;;6.37;2.27;;;4.70;95.60;;;;;;5035477;28;20179;-88
2022/01/21 13:11:11;;;;;;;5.67;2.67;;;3.30;99.90;;;;;;5035139;28;20209;-86
2022/01/21 13:13:58;;;;;;;4.93;2.03;;;2.80;99.90;;;;;;5035466;28;20197;-89
2022/01/21 13:16:27;;;;;;;7.40;2.10;;;3.00;99.90;;;;;;5035522;28;20516;-89
2022/01/21 13:19:04;;;;;;;7.70;2.60;;;3.10;99.90;;;;;;5036088;28;20214;-89
2022/01/21 13:21:32;;;;;;;5.73;2.60;;;2.70;99.90;;;;;;5036043;28;20170;-90
2022/01/21 13:24:00;;;;;;;7.73;2.23;;;2.20;99.90;;;;;;5036764;28;20527;-87
2022/01/21 13:26:37;;;;;;;10.00;3.10;;;2.10;99.90;;;;;;5039099;28;20549;-88
2022/01/21 13:29:10;;;;;;;7.67;2.57;;;2.30;99.90;;;;;;5039610;28;20186;-88
2022/01/21 13:31:54;;;;;;;5.60;2.60;;;2.10;99.90;;;;;;5039336;28;20175;-87
2022/01/21 13:34:39;;;;;;;6.17;2.70;;;2.10;99.90;;;;;;5039126;28;20615;-87
2022/01/21 13:37:09;;;;;;;10.73;3.37;;;2.10;99.90;;;;;;5038371;28;20199;-86
2022/01/21 13:39:38;;;;;;;8.03;3.00;;;2.10;99.90;;;;;;5038808;28;20509;-87
2022/01/21 13:42:11;;;;;;;5.40;2.73;;;1.60;99.90;;;;;;5038428;28;20183;-87
2022/01/21 13:45:01;;;;;;;7.00;2.67;;;1.80;99.90;;;;;;5038883;28;20234;-87
2022/01/21 13:47:37;;;;;;;7.60;2.93;;;1.80;99.90;;;;;;5038121;28;20178;-87
2022/01/21 13:50:18;;;;;;;6.87;2.73;;;1.70;99.90;;;;;;5038618;28;20181;-88
2022/01/21 13:52:48;;;;;;;5.73;2.53;;;1.70;99.90;;;;;;5038865;28;20500;-87
2022/01/21 13:55:29;;;;;;;4.53;2.83;;;1.50;99.90;;;;;;5038453;28;20482;-86